Time;durP1;ratioP1;P1;durP2;ratioP2;P2;SDS_P1;SDS_P2;PMS_P1;PMS_P2;Temp;Humidity;BMP_temperature;BMP_pressure;BME280_temperature;BME280_humidity;BME280_pressure;Samples;Min_cycle;Max_cycle;Signal;HPM_P1;HPM_P2
2023/01/07 00:01:22;;;;;;;53.13;28.70;;;9.80;99.50;;;;;;5050578;28;20040;-75
2023/01/07 00:03:50;;;;;;;47.53;26.45;;;9.90;99.70;;;;;;5051624;28;20065;-75
2023/01/07 00:06:24;;;;;;;47.03;26.45;;;9.90;99.40;;;;;;5051711;28;20546;-74
2023/01/07 00:08:50;;;;;;;;;;;9.90;99.80;;;;;;5052324;28;20059;-74
2023/01/07 00:11:19;;;;;;;45.92;26.88;;;10.00;99.70;;;;;;5051588;28;19969;-72
2023/01/07 00:13:47;;;;;;;41.72;24.23;;;9.90;99.60;;;;;;5035007;28;20116;-73
2023/01/07 00:16:15;;;;;;;49.17;25.52;;;10.00;99.80;;;;;;5051569;28;20533;-74
2023/01/07 00:18:42;;;;;;;42.15;22.98;;;10.00;99.60;;;;;;5050328;28;20045;-72
2023/01/07 00:21:11;;;;;;;46.17;25.20;;;10.00;99.70;;;;;;5051824;28;20378;-73
2023/01/07 00:23:38;;;;;;;37.28;21.83;;;9.90;99.60;;;;;;5051413;28;20123;-72
2023/01/07 00:26:05;;;;;;;48.47;23.80;;;10.00;99.80;;;;;;5034942;28;20124;-75
2023/01/07 00:28:33;;;;;;;41.47;23.23;;;10.00;99.80;;;;;;5051709;28;20063;-74
2023/01/07 00:31:07;;;;;;;43.55;24.33;;;10.00;99.50;;;;;;5051417;28;20048;-74
2023/01/07 00:33:44;;;;;;;40.67;21.98;;;10.00;99.60;;;;;;5051442;28;20037;-74
2023/01/07 00:36:09;;;;;;;47.42;24.48;;;10.10;99.90;;;;;;5050422;28;20037;-75
2023/01/07 00:38:36;;;;;;;41.30;23.55;;;10.00;99.80;;;;;;5051361;28;20090;-74
2023/01/07 00:41:03;;;;;;;44.60;22.75;;;10.00;99.90;;;;;;5033387;28;20047;-75
2023/01/07 00:43:29;;;;;;;43.53;23.88;;;10.00;99.70;;;;;;5034935;28;20068;-74
2023/01/07 00:45:54;;;;;;;44.03;23.90;;;10.00;99.90;;;;;;5051612;28;20500;-74
2023/01/07 00:48:22;;;;;;;50.28;27.02;;;10.00;99.90;;;;;;5051300;28;20059;-74
2023/01/07 00:50:49;;;;;;;42.38;24.38;;;10.00;99.90;;;;;;5051029;28;20077;-74
2023/01/07 00:53:15;;;;;;;46.33;25.58;;;10.00;99.70;;;;;;5051237;28;20076;-75
2023/01/07 00:55:41;;;;;;;48.65;26.45;;;10.00;99.80;;;;;;5055319;28;20037;-75
2023/01/07 00:58:06;;;;;;;40.40;24.25;;;10.00;99.70;;;;;;5053928;28;20079;-76
2023/01/07 01:00:32;;;;;;;51.05;26.65;;;10.00;99.80;;;;;;5055056;28;20412;-75
2023/01/07 01:02:58;;;;;;;48.15;27.88;;;10.00;99.80;;;;;;5055013;28;20037;-73
2023/01/07 01:05:24;;;;;;;52.83;27.58;;;10.00;99.80;;;;;;5055251;28;20374;-73
2023/01/07 01:07:51;;;;;;;43.22;26.23;;;10.00;99.80;;;;;;5055252;28;20428;-74
2023/01/07 01:10:18;;;;;;;56.10;29.80;;;10.00;99.80;;;;;;5054856;28;20382;-75
2023/01/07 01:12:46;;;;;;;45.65;26.45;;;10.00;99.80;;;;;;5054750;28;20044;-75
2023/01/07 01:15:14;;;;;;;45.80;26.40;;;10.00;99.50;;;;;;5053849;28;20040;-77
2023/01/07 01:17:40;;;;;;;43.25;27.45;;;10.00;99.90;;;;;;5054761;28;20052;-75
2023/01/07 01:20:08;;;;;;;44.17;27.33;;;10.00;99.80;;;;;;5054798;28;20204;-72
2023/01/07 01:22:33;;;;;;;43.83;26.75;;;10.00;99.80;;;;;;5054590;28;20041;-74
2023/01/07 01:24:59;;;;;;;48.67;29.02;;;10.00;99.80;;;;;;5037951;28;20041;-76
2023/01/07 01:27:25;;;;;;;48.65;29.25;;;9.90;99.80;;;;;;5054523;28;20063;-74
2023/01/07 01:29:51;;;;;;;46.28;29.38;;;10.00;99.90;;;;;;5052977;28;20033;-75
2023/01/07 01:32:16;;;;;;;48.50;29.23;;;10.00;99.80;;;;;;5036982;28;20047;-73
2023/01/07 01:34:42;;;;;;;43.30;28.63;;;10.00;99.90;;;;;;5053881;28;20390;-76
2023/01/07 01:37:08;;;;;;;41.13;28.98;;;9.90;99.90;;;;;;5037006;28;20040;-76
2023/01/07 01:39:33;;;;;;;46.85;30.75;;;10.00;99.90;;;;;;5020757;28;20041;-75
2023/01/07 01:41:59;;;;;;;40.67;27.90;;;10.00;99.90;;;;;;5020586;28;20041;-76
2023/01/07 01:44:36;;;;;;;45.25;28.15;;;9.90;99.90;;;;;;5053856;28;20436;-74
2023/01/07 01:47:31;;;;;;;39.63;27.45;;;10.00;99.70;;;;;;5053062;28;20044;-74
2023/01/07 01:50:25;;;;;;;36.55;26.17;;;9.90;99.80;;;;;;5048365;28;20045;-73
2023/01/07 01:52:54;;;;;;;39.65;27.77;;;10.00;99.90;;;;;;5032494;28;20052;-76
2023/01/07 01:55:24;;;;;;;38.22;27.60;;;10.00;99.90;;;;;;5054029;28;20481;-73
2023/01/07 01:57:54;;;;;;;35.67;25.70;;;9.90;99.90;;;;;;5054047;28;20048;-74
2023/01/07 02:00:20;;;;;;;37.67;26.35;;;10.00;99.90;;;;;;5054231;28;20405;-72
2023/01/07 02:02:55;;;;;;;33.50;23.88;;;10.00;99.90;;;;;;5053825;28;20045;-73
2023/01/07 02:05:28;;;;;;;33.92;24.70;;;10.00;99.90;;;;;;5053289;28;20064;-72
2023/01/07 02:07:54;;;;;;;36.55;25.50;;;10.00;99.80;;;;;;5053877;28;20041;-74
2023/01/07 02:10:22;;;;;;;35.40;25.30;;;10.00;99.80;;;;;;5037119;28;20049;-73
2023/01/07 02:13:11;;;;;;;36.08;26.27;;;9.90;99.80;;;;;;5053617;28;20075;-74
2023/01/07 02:15:49;;;;;;;35.50;25.40;;;10.00;99.80;;;;;;5053734;28;20079;-72
2023/01/07 02:18:23;;;;;;;33.92;24.42;;;10.00;99.80;;;;;;5053607;28;20178;-73
2023/01/07 02:21:17;;;;;;;36.13;24.77;;;9.90;99.60;;;;;;5052517;28;20481;-76
2023/01/07 02:24:08;;;;;;;31.30;23.73;;;10.00;99.70;;;;;;5036896;28;20044;-74
2023/01/07 02:26:45;;;;;;;34.90;25.98;;;9.90;99.80;;;;;;5053474;28;20045;-74
2023/01/07 02:29:23;;;;;;;32.53;23.75;;;10.00;99.80;;;;;;5053373;28;20086;-74
2023/01/07 02:32:26;;;;;;;33.97;24.70;;;9.90;99.70;;;;;;5053585;28;20389;-72
2023/01/07 02:34:51;;;;;;;29.98;23.48;;;9.90;99.70;;;;;;5053324;28;20069;-72
2023/01/07 02:37:31;;;;;;;30.67;24.30;;;9.90;99.70;;;;;;5052318;28;20125;-75
2023/01/07 02:40:12;;;;;;;33.22;25.30;;;9.90;99.70;;;;;;5053250;28;20055;-75
2023/01/07 02:42:44;;;;;;;31.25;23.42;;;9.90;99.60;;;;;;5037038;28;20044;-74
2023/01/07 02:45:19;;;;;;;33.35;23.88;;;10.00;99.60;;;;;;5053420;28;20056;-74
2023/01/07 02:47:58;;;;;;;25.65;20.65;;;9.90;99.60;;;;;;5053171;28;20049;-73
2023/01/07 02:50:24;;;;;;;28.45;21.08;;;10.00;99.50;;;;;;5052969;28;20560;-74
2023/01/07 02:52:50;;;;;;;30.73;21.67;;;10.00;99.40;;;;;;5052773;28;20135;-72
2023/01/07 02:55:45;;;;;;;26.70;21.30;;;9.90;99.40;;;;;;5051730;28;20045;-73
2023/01/07 02:58:25;;;;;;;;;;;10.00;99.40;;;;;;5053393;28;20123;-75
2023/01/07 03:01:00;;;;;;;26.77;19.70;;;10.00;99.30;;;;;;5052793;28;20384;-72
2023/01/07 03:03:57;;;;;;;23.80;18.67;;;10.00;99.20;;;;;;5052971;28;20385;-74
2023/01/07 03:06:34;;;;;;;27.25;19.95;;;10.00;99.20;;;;;;5052830;28;20124;-74
2023/01/07 03:09:06;;;;;;;23.77;19.20;;;10.00;99.10;;;;;;5052649;28;20045;-73
2023/01/07 03:11:57;;;;;;;25.40;19.15;;;10.10;99.00;;;;;;5051771;28;20416;-73
2023/01/07 03:14:33;;;;;;;23.88;18.02;;;10.10;98.90;;;;;;5052640;28;20079;-75
2023/01/07 03:17:05;;;;;;;21.35;18.98;;;10.10;98.80;;;;;;5035831;28;20076;-73
2023/01/07 03:19:35;;;;;;;23.20;17.83;;;10.10;98.80;;;;;;5052495;28;20051;-75
2023/01/07 03:22:03;;;;;;;20.60;15.23;;;10.10;98.80;;;;;;5052634;28;20037;-73
2023/01/07 03:24:31;;;;;;;21.45;16.75;;;10.10;98.80;;;;;;5052442;28;20037;-74
2023/01/07 03:26:59;;;;;;;23.65;16.77;;;10.20;98.60;;;;;;5052362;28;20052;-74
2023/01/07 03:29:24;;;;;;;20.50;16.98;;;10.20;98.60;;;;;;5051288;28;20402;-74
2023/01/07 03:32:10;;;;;;;22.65;17.15;;;10.20;98.50;;;;;;5052226;28;20036;-74
2023/01/07 03:34:37;;;;;;;21.50;17.40;;;10.20;98.30;;;;;;5052494;28;20110;-73
2023/01/07 03:37:14;;;;;;;19.65;16.48;;;10.20;98.30;;;;;;5019131;28;20037;-74
2023/01/07 03:39:42;;;;;;;22.05;15.20;;;10.20;98.30;;;;;;5052166;28;20045;-72
2023/01/07 03:44:55;;;;;;;20.95;15.90;;;10.20;98.10;;;;;;5050893;28;20078;-73
2023/01/07 03:47:22;;;;;;;21.80;16.10;;;10.20;98.00;;;;;;5052101;28;20045;-72
2023/01/07 03:49:47;;;;;;;19.98;16.58;;;10.20;97.90;;;;;;5052087;28;20424;-74
2023/01/07 03:52:13;;;;;;;16.25;14.50;;;10.30;98.00;;;;;;5035173;28;20045;-73
2023/01/07 03:54:39;;;;;;;18.75;16.05;;;10.30;97.90;;;;;;5051899;28;20510;-74
2023/01/07 03:57:04;;;;;;;17.58;13.73;;;10.20;97.70;;;;;;5035250;28;20041;-74
2023/01/07 03:59:30;;;;;;;17.88;14.25;;;10.30;97.80;;;;;;5051789;28;20040;-72
2023/01/07 04:01:56;;;;;;;17.67;15.40;;;10.30;97.60;;;;;;5034489;28;20056;-75
2023/01/07 04:04:21;;;;;;;18.08;14.82;;;10.30;97.50;;;;;;5052016;28;20045;-74
2023/01/07 04:06:47;;;;;;;18.42;15.73;;;10.30;97.40;;;;;;5052024;28;20578;-74
2023/01/07 04:09:14;;;;;;;18.45;15.10;;;10.30;97.40;;;;;;5051611;28;20489;-73
2023/01/07 04:11:40;;;;;;;19.45;14.55;;;10.20;97.40;;;;;;5051666;28;20044;-75
2023/01/07 04:14:06;;;;;;;21.77;15.13;;;10.30;97.60;;;;;;5051592;28;20047;-73
2023/01/07 04:16:31;;;;;;;19.48;12.82;;;10.30;97.30;;;;;;5051545;28;20123;-74
2023/01/07 04:18:57;;;;;;;21.67;15.45;;;10.30;97.40;;;;;;5050616;28;20063;-73
2023/01/07 04:21:23;;;;;;;19.90;16.25;;;10.30;97.10;;;;;;5035033;28;20040;-74
2023/01/07 04:23:49;;;;;;;21.67;15.25;;;10.30;97.00;;;;;;5051498;28;20048;-75
2023/01/07 04:26:14;;;;;;;18.25;15.10;;;10.30;97.10;;;;;;5034917;28;20403;-73
2023/01/07 04:28:40;;;;;;;18.77;15.80;;;10.30;96.90;;;;;;5035542;28;20045;-74
2023/01/07 04:31:06;;;;;;;19.45;15.63;;;10.30;96.80;;;;;;5055610;28;20052;-74
2023/01/07 04:33:31;;;;;;;20.60;16.45;;;10.30;97.00;;;;;;5054432;28;20044;-74
2023/01/07 04:35:57;;;;;;;19.20;17.00;;;10.30;96.80;;;;;;5055603;28;20033;-73
2023/01/07 04:38:23;;;;;;;18.92;16.13;;;10.30;96.80;;;;;;5039042;28;20079;-73
2023/01/07 04:40:49;;;;;;;26.95;17.73;;;10.30;96.70;;;;;;5038861;28;20044;-73
2023/01/07 04:43:14;;;;;;;22.08;16.42;;;10.40;96.70;;;;;;5055439;28;20040;-72
2023/01/07 04:45:40;;;;;;;19.98;17.35;;;10.40;96.70;;;;;;5055709;28;20427;-74
2023/01/07 04:48:06;;;;;;;21.25;17.30;;;10.40;96.60;;;;;;5055519;28;20041;-74
2023/01/07 04:50:32;;;;;;;22.13;16.40;;;10.40;96.60;;;;;;5054117;28;20041;-75
2023/01/07 04:52:57;;;;;;;19.27;17.17;;;10.40;96.60;;;;;;5038478;28;20107;-74
2023/01/07 04:55:23;;;;;;;19.65;17.55;;;10.40;96.60;;;;;;5055470;28;20056;-73
2023/01/07 04:57:49;;;;;;;22.27;16.17;;;10.30;96.60;;;;;;5038635;28;20485;-74
2023/01/07 05:00:15;;;;;;;21.70;17.17;;;10.30;96.60;;;;;;5055155;28;20041;-73
2023/01/07 05:02:40;;;;;;;21.05;17.35;;;10.30;96.70;;;;;;5055011;28;20497;-74
2023/01/07 05:05:07;;;;;;;19.63;16.58;;;10.30;96.70;;;;;;5053608;28;20047;-78
2023/01/07 05:07:32;;;;;;;21.85;16.90;;;10.30;96.70;;;;;;5055060;28;20052;-77
2023/01/07 05:09:58;;;;;;;21.27;17.30;;;10.30;96.60;;;;;;5054911;28;20041;-75
2023/01/07 05:12:24;;;;;;;23.27;17.48;;;10.30;96.60;;;;;;5054833;28;20091;-74
2023/01/07 05:14:49;;;;;;;20.92;15.85;;;10.30;96.60;;;;;;5054862;28;20044;-74
2023/01/07 05:17:15;;;;;;;19.08;15.98;;;10.30;96.60;;;;;;5038266;28;20037;-74
2023/01/07 05:19:41;;;;;;;21.90;16.23;;;10.30;96.40;;;;;;5055073;28;20075;-74
2023/01/07 05:22:06;;;;;;;18.27;15.13;;;10.30;96.50;;;;;;5053397;28;20481;-75
2023/01/07 05:24:32;;;;;;;19.83;15.35;;;10.30;96.20;;;;;;5038127;28;20076;-73
2023/01/07 05:26:57;;;;;;;20.48;15.95;;;10.30;96.30;;;;;;5054645;28;20045;-73
2023/01/07 05:29:23;;;;;;;22.67;16.90;;;10.30;96.20;;;;;;5054544;28;20041;-73
2023/01/07 05:31:49;;;;;;;20.70;15.73;;;10.30;96.20;;;;;;5054487;28;20033;-73
2023/01/07 05:34:14;;;;;;;21.75;15.82;;;10.20;96.00;;;;;;5038228;28;20040;-75
2023/01/07 05:36:40;;;;;;;18.25;15.50;;;10.10;96.10;;;;;;5053330;28;20040;-73
2023/01/07 05:39:06;;;;;;;21.52;15.13;;;10.10;96.20;;;;;;5034948;28;20045;-73
2023/01/07 05:41:31;;;;;;;19.40;15.77;;;10.10;96.10;;;;;;5001846;28;20630;-75
2023/01/07 05:43:57;;;;;;;18.83;16.23;;;10.10;96.10;;;;;;5034336;28;20042;-75
2023/01/07 05:46:23;;;;;;;22.17;16.90;;;10.10;96.30;;;;;;5021647;28;20041;-73
2023/01/07 05:48:49;;;;;;;20.67;15.63;;;10.00;96.30;;;;;;5054403;28;20049;-73
2023/01/07 05:51:14;;;;;;;21.48;15.82;;;10.10;96.40;;;;;;5037700;28;20440;-72
2023/01/07 05:53:40;;;;;;;21.58;16.70;;;10.00;96.40;;;;;;5054126;28;20041;-76
2023/01/07 05:56:06;;;;;;;25.90;17.58;;;10.00;96.50;;;;;;5054352;28;20049;-76
2023/01/07 05:58:32;;;;;;;23.48;16.63;;;10.00;96.50;;;;;;5054047;28;20037;-74
2023/01/07 06:00:57;;;;;;;21.10;15.73;;;10.00;96.60;;;;;;5054305;28;20036;-74
2023/01/07 06:03:23;;;;;;;21.27;15.70;;;10.00;96.60;;;;;;5053009;28;20041;-75
2023/01/07 06:05:49;;;;;;;23.95;17.13;;;10.00;96.50;;;;;;5054194;28;20485;-73
2023/01/07 06:08:16;;;;;;;19.88;16.17;;;10.00;96.50;;;;;;5037259;28;20037;-72
2023/01/07 06:10:43;;;;;;;24.55;16.60;;;10.00;96.60;;;;;;5053429;28;20052;-74
2023/01/07 06:13:09;;;;;;;20.20;15.73;;;9.90;96.60;;;;;;5037942;28;20051;-75
2023/01/07 06:15:34;;;;;;;22.58;15.93;;;9.80;96.70;;;;;;5054005;28;20401;-72
2023/01/07 06:18:00;;;;;;;21.63;16.20;;;9.80;96.60;;;;;;5053889;28;20127;-72
2023/01/07 06:20:26;;;;;;;26.02;17.60;;;9.80;96.60;;;;;;5053048;28;20049;-76
2023/01/07 06:22:53;;;;;;;23.73;17.95;;;9.80;96.70;;;;;;5053697;28;20037;-72
2023/01/07 06:25:18;;;;;;;21.58;16.38;;;9.80;96.70;;;;;;5037179;28;20133;-76
2023/01/07 06:27:44;;;;;;;21.40;14.27;;;9.80;96.80;;;;;;5053739;28;20127;-73
2023/01/07 06:30:11;;;;;;;22.10;15.75;;;9.80;96.80;;;;;;5053618;28;20041;-73
2023/01/07 06:32:38;;;;;;;22.67;15.82;;;9.80;96.80;;;;;;5053483;28;20041;-72
2023/01/07 06:35:05;;;;;;;21.38;15.48;;;9.80;96.70;;;;;;5052480;28;20091;-74
2023/01/07 06:37:31;;;;;;;17.05;15.05;;;9.80;96.80;;;;;;5036967;28;20573;-71
2023/01/07 06:39:57;;;;;;;20.75;15.43;;;9.70;96.70;;;;;;5053397;28;20052;-72
2023/01/07 06:42:23;;;;;;;18.58;14.05;;;9.70;96.80;;;;;;5052561;28;20041;-75
2023/01/07 06:44:48;;;;;;;21.80;16.00;;;9.70;96.80;;;;;;5035020;28;20107;-73
2023/01/07 06:47:14;;;;;;;18.42;13.82;;;9.70;96.80;;;;;;5023645;28;20065;-74
2023/01/07 06:49:40;;;;;;;18.95;14.80;;;9.70;96.80;;;;;;5054334;28;20463;-74
2023/01/07 06:52:05;;;;;;;17.58;13.73;;;9.70;96.70;;;;;;5033350;28;20600;-73
2023/01/07 06:54:31;;;;;;;19.67;14.35;;;9.70;96.80;;;;;;5035898;28;20044;-76
2023/01/07 06:56:57;;;;;;;17.63;14.43;;;9.70;96.70;;;;;;5052667;28;20488;-72
2023/01/07 06:59:22;;;;;;;18.48;14.20;;;9.70;96.70;;;;;;5052512;28;20087;-74
2023/01/07 07:01:48;;;;;;;18.60;14.23;;;9.70;96.70;;;;;;5052786;28;20041;-74
2023/01/07 07:04:14;;;;;;;21.70;14.98;;;9.70;96.70;;;;;;5053070;28;20037;-73
2023/01/07 07:06:39;;;;;;;23.27;15.85;;;9.70;96.70;;;;;;5053050;28;20452;-72
2023/01/07 07:09:05;;;;;;;19.63;14.40;;;9.60;96.70;;;;;;5018793;28;20409;-74
2023/01/07 07:11:31;;;;;;;17.67;14.23;;;9.60;96.70;;;;;;5052867;28;20032;-71
2023/01/07 07:13:58;;;;;;;15.35;13.73;;;9.70;96.70;;;;;;5019563;28;20393;-72
2023/01/07 07:16:24;;;;;;;18.38;12.07;;;9.70;96.70;;;;;;5036503;28;20048;-73
2023/01/07 07:18:51;;;;;;;16.98;13.65;;;9.70;96.70;;;;;;5048902;28;20044;-75
2023/01/07 07:21:17;;;;;;;16.88;13.02;;;9.70;96.60;;;;;;5050706;28;20362;-72
2023/01/07 07:23:43;;;;;;;16.50;12.43;;;9.70;96.60;;;;;;5034371;28;20094;-73
2023/01/07 07:26:09;;;;;;;18.40;13.00;;;9.70;96.60;;;;;;5049212;28;20041;-74
2023/01/07 07:28:34;;;;;;;15.73;12.18;;;9.60;96.60;;;;;;5050578;28;20512;-77
2023/01/07 07:31:00;;;;;;;15.73;12.55;;;9.70;96.60;;;;;;5035599;28;20099;-75
2023/01/07 07:33:26;;;;;;;17.80;12.70;;;9.60;96.60;;;;;;5052155;28;20398;-71
2023/01/07 07:35:53;;;;;;;17.25;13.07;;;9.60;96.60;;;;;;5035811;28;20044;-73
2023/01/07 07:38:19;;;;;;;15.70;11.20;;;9.60;96.60;;;;;;5052040;28;20060;-75
2023/01/07 07:40:46;;;;;;;14.20;11.68;;;9.60;96.60;;;;;;5052226;28;20041;-73
2023/01/07 07:43:12;;;;;;;14.48;11.75;;;9.60;96.50;;;;;;5051095;28;20460;-77
2023/01/07 07:45:42;;;;;;;15.15;10.85;;;9.60;96.60;;;;;;5051967;28;20045;-74
2023/01/07 07:48:09;;;;;;;12.65;10.50;;;9.60;96.50;;;;;;5051946;28;20051;-76
2023/01/07 07:50:35;;;;;;;16.25;11.27;;;9.60;96.50;;;;;;5051844;28;20037;-73
2023/01/07 07:53:01;;;;;;;12.95;10.00;;;9.60;96.50;;;;;;5035039;28;20045;-75
2023/01/07 07:55:27;;;;;;;14.40;10.75;;;9.50;96.50;;;;;;5051631;28;20041;-75
2023/01/07 07:57:54;;;;;;;14.05;10.95;;;9.60;96.50;;;;;;5050579;28;20037;-76
2023/01/07 08:00:20;;;;;;;13.85;10.15;;;9.60;96.60;;;;;;5043171;28;20037;-75
2023/01/07 08:02:45;;;;;;;12.70;9.52;;;9.50;96.60;;;;;;5054130;28;20045;-75
2023/01/07 08:05:11;;;;;;;16.17;10.02;;;9.50;96.60;;;;;;5031244;28;20478;-74
2023/01/07 08:07:38;;;;;;;13.38;10.15;;;9.50;96.60;;;;;;5031908;28;20052;-72
2023/01/07 08:10:05;;;;;;;11.48;9.38;;;9.50;96.60;;;;;;5031691;28;20045;-74
2023/01/07 08:12:31;;;;;;;13.57;9.77;;;9.50;96.60;;;;;;5031960;28;20436;-73
2023/01/07 08:15:03;;;;;;;11.63;8.93;;;9.60;96.50;;;;;;5039866;28;20041;-72
2023/01/07 08:17:32;;;;;;;14.05;8.75;;;9.50;96.50;;;;;;5018790;28;20037;-72
2023/01/07 08:19:58;;;;;;;10.55;8.50;;;9.50;96.50;;;;;;5049435;28;20079;-76
2023/01/07 08:22:23;;;;;;;11.23;7.88;;;9.50;96.50;;;;;;5051831;28;20073;-73
2023/01/07 08:24:49;;;;;;;11.85;7.93;;;9.50;96.40;;;;;;5051486;28;20041;-73
2023/01/07 08:27:15;;;;;;;12.20;8.70;;;9.50;96.40;;;;;;5051711;28;20179;-76
2023/01/07 08:29:41;;;;;;;12.57;7.75;;;9.50;96.40;;;;;;5051462;28;20501;-72
2023/01/07 08:32:06;;;;;;;10.45;7.75;;;9.50;96.40;;;;;;5034895;28;20044;-74
2023/01/07 08:34:32;;;;;;;12.73;8.25;;;9.50;96.30;;;;;;5034938;28;20041;-73
2023/01/07 08:36:58;;;;;;;8.23;7.20;;;9.50;96.30;;;;;;5034833;28;20124;-71
2023/01/07 08:39:24;;;;;;;11.57;8.63;;;9.50;96.30;;;;;;5051355;28;20041;-74
2023/01/07 08:41:49;;;;;;;10.23;8.15;;;9.50;96.20;;;;;;5051656;28;20041;-73
2023/01/07 08:44:15;;;;;;;12.60;9.18;;;9.50;96.20;;;;;;5034762;28;20053;-74
2023/01/07 08:46:41;;;;;;;10.75;7.55;;;9.50;96.20;;;;;;5051324;28;20452;-72
2023/01/07 08:49:09;;;;;;;11.63;7.57;;;9.50;96.20;;;;;;5034820;28;20052;-72
2023/01/07 08:51:36;;;;;;;7.75;6.90;;;9.50;96.20;;;;;;5051139;28;20053;-72
2023/01/07 08:54:01;;;;;;;11.05;9.50;;;9.50;96.20;;;;;;5034732;28;20041;-73
2023/01/07 08:56:27;;;;;;;8.55;6.72;;;9.50;96.20;;;;;;5051175;28;20115;-71
2023/01/07 08:58:53;;;;;;;9.30;7.72;;;9.50;96.10;;;;;;5051306;28;20090;-73
2023/01/07 09:01:19;;;;;;;9.68;6.55;;;9.50;96.10;;;;;;5051158;28;20033;-73
2023/01/07 09:03:45;;;;;;;8.05;6.95;;;9.50;96.10;;;;;;5034838;28;20033;-76
2023/01/07 09:06:10;;;;;;;9.02;5.95;;;9.50;96.10;;;;;;5051129;28;20037;-74
2023/01/07 09:08:36;;;;;;;7.15;5.80;;;9.50;95.90;;;;;;5051397;28;20041;-72
2023/01/07 09:11:02;;;;;;;7.43;5.32;;;9.60;95.90;;;;;;5034431;28;20397;-73
2023/01/07 09:13:27;;;;;;;8.73;5.85;;;9.60;95.70;;;;;;5051339;28;20087;-75
2023/01/07 09:15:53;;;;;;;10.30;5.88;;;9.60;95.60;;;;;;5053779;28;20422;-73
2023/01/07 09:18:19;;;;;;;8.73;5.93;;;9.60;95.60;;;;;;5055080;28;20037;-73
2023/01/07 09:20:45;;;;;;;9.50;6.50;;;9.60;95.60;;;;;;5054768;28;20033;-73
2023/01/07 09:23:10;;;;;;;8.63;5.47;;;9.60;95.60;;;;;;5021678;28;20075;-72
2023/01/07 09:25:36;;;;;;;9.68;5.10;;;9.60;95.60;;;;;;5054888;28;20037;-74
2023/01/07 09:28:02;;;;;;;7.88;5.70;;;9.60;95.40;;;;;;5054649;28;20533;-75
2023/01/07 09:30:28;;;;;;;8.25;5.93;;;9.60;95.30;;;;;;5054524;28;20076;-76
2023/01/07 09:32:53;;;;;;;8.68;5.10;;;9.60;95.30;;;;;;5054550;28;20040;-73
2023/01/07 09:35:19;;;;;;;8.73;4.90;;;9.60;95.40;;;;;;5054746;28;20033;-76
2023/01/07 09:37:45;;;;;;;8.13;4.90;;;9.60;95.30;;;;;;5021615;28;20043;-74
2023/01/07 09:40:26;;;;;;;8.07;4.78;;;9.60;95.30;;;;;;5037881;28;20378;-73
2023/01/07 09:43:33;;;;;;;6.70;4.68;;;9.60;95.20;;;;;;5038077;28;20047;-74
2023/01/07 09:46:03;;;;;;;8.98;4.32;;;9.60;95.20;;;;;;5008739;28;20102;-76
2023/01/07 09:48:33;;;;;;;5.85;4.32;;;9.60;95.10;;;;;;5054535;28;20048;-76
2023/01/07 09:51:05;;;;;;;6.93;4.20;;;9.60;95.00;;;;;;5053986;28;20073;-73
2023/01/07 09:53:45;;;;;;;7.63;4.63;;;9.60;94.70;;;;;;5054172;28;20088;-73
2023/01/07 09:56:28;;;;;;;6.32;5.20;;;9.70;95.00;;;;;;5037807;28;20366;-73
2023/01/07 09:58:55;;;;;;;6.13;3.75;;;9.70;94.60;;;;;;5054161;28;20045;-75
2023/01/07 10:01:52;;;;;;;6.82;3.35;;;9.70;94.50;;;;;;5054028;28;20045;-74
2023/01/07 10:04:24;;;;;;;5.97;4.18;;;9.80;93.90;;;;;;5036691;28;20509;-74
2023/01/07 10:07:08;;;;;;;6.65;3.35;;;9.80;93.80;;;;;;5053921;28;20037;-72
2023/01/07 10:10:24;;;;;;;4.97;3.30;;;9.80;94.20;;;;;;5054103;28;20044;-77
2023/01/07 10:13:32;;;;;;;5.90;3.03;;;9.80;94.10;;;;;;4997003;28;20196;-72
2023/01/07 10:16:08;;;;;;;5.00;3.72;;;9.90;93.60;;;;;;5007600;28;20050;-76
2023/01/07 10:19:02;;;;;;;8.10;3.92;;;9.90;93.70;;;;;;5026476;28;20559;-73
2023/01/07 10:21:39;;;;;;;4.45;3.33;;;9.90;93.30;;;;;;5053714;28;20040;-74
2023/01/07 10:24:17;;;;;;;5.05;3.20;;;10.00;93.10;;;;;;5037330;28;20393;-76
2023/01/07 10:26:47;;;;;;;3.55;2.63;;;10.00;92.90;;;;;;5052618;28;20040;-75
2023/01/07 10:29:22;;;;;;;3.45;2.83;;;10.00;92.70;;;;;;5053476;28;20041;-76
2023/01/07 10:31:50;;;;;;;6.10;2.83;;;10.10;93.10;;;;;;5053977;28;20041;-76
2023/01/07 10:34:21;;;;;;;4.97;2.80;;;10.10;92.50;;;;;;5036977;28;20046;-74
2023/01/07 10:37:04;;;;;;;3.15;2.40;;;10.10;91.80;;;;;;5053575;28;20410;-76
2023/01/07 10:40:07;;;;;;;4.00;2.80;;;10.10;91.10;;;;;;5036759;28;20045;-75
2023/01/07 10:42:48;;;;;;;3.25;2.67;;;10.20;91.30;;;;;;5036669;28;20102;-75
2023/01/07 10:45:29;;;;;;;4.28;2.25;;;10.20;91.80;;;;;;5053447;28;20084;-73
2023/01/07 10:48:18;;;;;;;6.15;3.17;;;10.20;91.30;;;;;;5053164;28;20041;-73
2023/01/07 10:51:06;;;;;;;4.68;2.15;;;10.20;91.00;;;;;;5036504;28;20036;-73
2023/01/07 10:53:58;;;;;;;3.17;2.58;;;10.30;91.00;;;;;;5053116;28;20082;-73
2023/01/07 10:56:49;;;;;;;7.47;2.75;;;10.30;90.60;;;;;;5052327;28;20053;-74
2023/01/07 10:59:19;;;;;;;2.53;1.95;;;10.40;90.70;;;;;;5053176;28;20048;-74
2023/01/07 11:01:50;;;;;;;2.85;2.20;;;10.50;90.10;;;;;;5053194;28;20032;-76
2023/01/07 11:04:16;;;;;;;3.90;1.90;;;10.50;89.40;;;;;;5053184;28;20459;-75
2023/01/07 11:07:02;;;;;;;3.60;2.25;;;10.60;89.10;;;;;;5036012;28;20512;-75
2023/01/07 11:09:47;;;;;;;3.60;3.20;;;10.50;89.40;;;;;;5036152;28;20040;-72
2023/01/07 11:12:30;;;;;;;6.18;3.30;;;10.60;89.30;;;;;;5053042;28;20040;-74
2023/01/07 11:14:58;;;;;;;5.57;3.40;;;10.50;89.00;;;;;;5052916;28;20041;-72
2023/01/07 11:17:44;;;;;;;4.20;2.40;;;10.60;89.80;;;;;;5052826;28;20558;-74
2023/01/07 11:20:11;;;;;;;3.00;2.50;;;10.60;89.50;;;;;;5052843;28;20124;-76
2023/01/07 11:22:38;;;;;;;2.90;2.25;;;10.60;89.50;;;;;;5052796;28;20124;-73
2023/01/07 11:25:23;;;;;;;2.83;2.53;;;10.60;89.70;;;;;;5052466;28;20053;-75
2023/01/07 11:27:49;;;;;;;3.72;1.85;;;10.60;88.70;;;;;;5052676;28;20366;-71
2023/01/07 11:30:26;;;;;;;3.17;2.25;;;10.60;88.70;;;;;;5052320;28;20049;-74
2023/01/07 11:33:04;;;;;;;4.03;3.33;;;10.60;88.00;;;;;;5052347;28;20147;-73
2023/01/07 11:35:30;;;;;;;2.72;2.53;;;10.70;88.70;;;;;;5052500;28;20389;-77
2023/01/07 11:37:57;;;;;;;3.35;2.53;;;10.60;88.20;;;;;;5052060;28;20502;-74
2023/01/07 11:40:31;;;;;;;2.45;1.80;;;10.60;87.90;;;;;;5035620;28;20147;-79
2023/01/07 11:43:02;;;;;;;3.17;1.77;;;10.60;87.40;;;;;;5052212;28;20040;-73
2023/01/07 11:45:35;;;;;;;6.35;3.17;;;10.60;87.10;;;;;;5035316;28;20072;-74
2023/01/07 11:48:06;;;;;;;4.65;2.47;;;10.60;87.50;;;;;;5052058;28;20465;-74
2023/01/07 11:50:39;;;;;;;2.03;1.40;;;10.60;87.30;;;;;;5035463;28;20060;-74
2023/01/07 11:53:14;;;;;;;3.80;2.78;;;10.60;86.90;;;;;;5035497;28;20512;-76
2023/01/07 11:55:55;;;;;;;2.72;1.70;;;10.70;86.80;;;;;;5051907;28;20401;-73
2023/01/07 11:58:22;;;;;;;2.38;1.83;;;10.80;85.80;;;;;;5052240;28;20397;-76
2023/01/07 12:01:06;;;;;;;2.20;1.73;;;10.80;87.00;;;;;;5052090;28;20408;-73
2023/01/07 12:03:32;;;;;;;3.72;2.58;;;10.80;86.60;;;;;;5051892;28;20041;-73
2023/01/07 12:06:07;;;;;;;3.20;1.58;;;10.80;86.10;;;;;;5052054;28;20392;-73
2023/01/07 12:08:34;;;;;;;4.78;2.90;;;10.80;86.10;;;;;;5035212;28;20133;-76
2023/01/07 12:11:07;;;;;;;3.75;2.50;;;10.80;85.40;;;;;;5035172;28;20045;-75
2023/01/07 12:13:34;;;;;;;3.40;2.47;;;10.80;85.80;;;;;;5052072;28;20389;-75
2023/01/07 12:16:06;;;;;;;5.03;2.65;;;10.80;85.70;;;;;;5034994;28;20036;-76
2023/01/07 12:18:50;;;;;;;3.47;2.25;;;10.80;86.20;;;;;;5035068;28;20041;-72
2023/01/07 12:21:31;;;;;;;3.25;2.20;;;10.80;85.70;;;;;;5051683;28;20505;-74
2023/01/07 12:24:17;;;;;;;2.30;1.88;;;11.00;85.40;;;;;;5035301;28;20156;-75
2023/01/07 12:26:56;;;;;;;3.22;1.92;;;11.10;85.90;;;;;;5034940;28;20129;-75
2023/01/07 12:29:59;;;;;;;3.35;2.20;;;11.10;84.10;;;;;;5051483;28;20041;-75
2023/01/07 12:33:12;;;;;;;2.95;1.80;;;11.30;84.60;;;;;;5035287;28;20386;-77
2023/01/07 12:35:42;;;;;;;3.92;1.40;;;11.40;82.60;;;;;;5046358;28;20126;-75
2023/01/07 12:38:24;;;;;;;1.88;1.45;;;11.40;82.70;;;;;;5035034;28;20041;-76
2023/01/07 12:41:24;;;;;;;1.40;1.30;;;11.40;82.30;;;;;;5051542;28;20049;-73
2023/01/07 12:44:11;;;;;;;1.98;1.10;;;11.50;80.90;;;;;;5034898;28;20131;-75
2023/01/07 12:46:57;;;;;;;2.83;1.75;;;11.40;80.40;;;;;;5051328;28;20076;-75
2023/01/07 12:49:49;;;;;;;3.60;1.20;;;11.40;82.20;;;;;;5035106;28;20102;-75
2023/01/07 12:52:31;;;;;;;2.38;1.23;;;11.40;81.30;;;;;;5028777;28;20511;-75
2023/01/07 12:55:12;;;;;;;2.28;1.10;;;11.30;81.40;;;;;;5055242;28;20045;-73
2023/01/07 12:57:39;;;;;;;1.40;1.13;;;11.40;81.40;;;;;;5038986;28;20389;-72
2023/01/07 13:00:17;;;;;;;1.42;1.17;;;11.40;81.40;;;;;;5055232;28;20048;-74